sensor_id;sensor_type;location;lat;lon;timestamp;P1;durP1;ratioP1;P2;durP2;ratioP2
22219;SDS011;11279;48.364;10.904;2024-02-04T00:00:04;6.80;;;4.27;;
22219;SDS011;11279;48.364;10.904;2024-02-04T00:01:05;5.80;;;4.10;;
22219;SDS011;11279;48.364;10.904;2024-02-04T00:02:06;6.07;;;4.10;;
22219;SDS011;11279;48.364;10.904;2024-02-04T00:03:07;6.38;;;4.00;;
22219;SDS011;11279;48.364;10.904;2024-02-04T00:04:07;7.37;;;3.80;;
22219;SDS011;11279;48.364;10.904;2024-02-04T00:05:08;6.57;;;3.90;;
22219;SDS011;11279;48.364;10.904;2024-02-04T00:06:08;6.87;;;4.00;;
22219;SDS011;11279;48.364;10.904;2024-02-04T00:07:09;7.50;;;4.00;;
22219;SDS011;11279;48.364;10.904;2024-02-04T00:08:09;7.87;;;4.20;;
22219;SDS011;11279;48.364;10.904;2024-02-04T00:09:10;5.27;;;3.70;;
22219;SDS011;11279;48.364;10.904;2024-02-04T00:10:10;7.47;;;4.30;;
22219;SDS011;11279;48.364;10.904;2024-02-04T00:11:11;5.47;;;3.60;;
22219;SDS011;11279;48.364;10.904;2024-02-04T00:12:12;6.17;;;3.70;;
22219;SDS011;11279;48.364;10.904;2024-02-04T00:13:12;5.50;;;3.57;;
22219;SDS011;11279;48.364;10.904;2024-02-04T00:14:12;7.20;;;4.20;;
22219;SDS011;11279;48.364;10.904;2024-02-04T00:15:13;5.23;;;3.80;;
22219;SDS011;11279;48.364;10.904;2024-02-04T00:16:13;7.10;;;4.27;;
22219;SDS011;11279;48.364;10.904;2024-02-04T00:17:14;7.00;;;4.20;;
22219;SDS011;11279;48.364;10.904;2024-02-04T00:18:15;6.75;;;3.53;;
22219;SDS011;11279;48.364;10.904;2024-02-04T00:19:15;7.03;;;4.17;;
22219;SDS011;11279;48.364;10.904;2024-02-04T00:20:16;6.80;;;4.13;;
22219;SDS011;11279;48.364;10.904;2024-02-04T00:21:16;7.57;;;3.83;;
22219;SDS011;11279;48.364;10.904;2024-02-04T00:22:17;5.70;;;3.80;;
22219;SDS011;11279;48.364;10.904;2024-02-04T00:23:20;6.70;;;4.18;;
22219;SDS011;11279;48.364;10.904;2024-02-04T00:24:20;5.20;;;3.53;;
22219;SDS011;11279;48.364;10.904;2024-02-04T00:25:21;5.30;;;3.73;;
22219;SDS011;11279;48.364;10.904;2024-02-04T00:26:21;6.43;;;3.60;;
22219;SDS011;11279;48.364;10.904;2024-02-04T00:27:21;6.50;;;3.93;;
22219;SDS011;11279;48.364;10.904;2024-02-04T00:28:22;5.87;;;3.77;;
22219;SDS011;11279;48.364;10.904;2024-02-04T00:29:22;5.63;;;3.80;;
22219;SDS011;11279;48.364;10.904;2024-02-04T00:30:23;6.57;;;4.30;;
22219;SDS011;11279;48.364;10.904;2024-02-04T00:31:24;5.47;;;3.67;;
22219;SDS011;11279;48.364;10.904;2024-02-04T00:32:24;6.53;;;4.20;;
22219;SDS011;11279;48.364;10.904;2024-02-04T00:33:26;7.40;;;4.47;;
22219;SDS011;11279;48.364;10.904;2024-02-04T00:34:26;5.47;;;3.80;;
22219;SDS011;11279;48.364;10.904;2024-02-04T00:35:26;5.37;;;3.80;;
22219;SDS011;11279;48.364;10.904;2024-02-04T00:36:27;5.67;;;3.90;;
22219;SDS011;11279;48.364;10.904;2024-02-04T00:37:27;5.90;;;3.97;;
22219;SDS011;11279;48.364;10.904;2024-02-04T00:38:28;6.87;;;4.30;;
22219;SDS011;11279;48.364;10.904;2024-02-04T00:39:28;6.10;;;4.20;;
22219;SDS011;11279;48.364;10.904;2024-02-04T00:40:29;6.53;;;3.67;;
22219;SDS011;11279;48.364;10.904;2024-02-04T00:41:29;6.53;;;4.30;;
22219;SDS011;11279;48.364;10.904;2024-02-04T00:42:30;7.87;;;4.33;;
22219;SDS011;11279;48.364;10.904;2024-02-04T00:43:30;6.57;;;4.23;;
22219;SDS011;11279;48.364;10.904;2024-02-04T00:44:30;6.87;;;4.37;;
22219;SDS011;11279;48.364;10.904;2024-02-04T00:45:31;8.13;;;4.67;;
22219;SDS011;11279;48.364;10.904;2024-02-04T00:46:31;7.13;;;4.53;;
22219;SDS011;11279;48.364;10.904;2024-02-04T00:47:32;7.70;;;4.90;;
22219;SDS011;11279;48.364;10.904;2024-02-04T00:48:32;7.80;;;4.93;;
22219;SDS011;11279;48.364;10.904;2024-02-04T00:49:33;7.80;;;4.80;;
22219;SDS011;11279;48.364;10.904;2024-02-04T00:50:33;7.00;;;4.40;;
22219;SDS011;11279;48.364;10.904;2024-02-04T00:51:33;6.37;;;4.40;;
22219;SDS011;11279;48.364;10.904;2024-02-04T00:52:34;7.93;;;4.77;;
22219;SDS011;11279;48.364;10.904;2024-02-04T00:53:34;6.93;;;4.53;;
22219;SDS011;11279;48.364;10.904;2024-02-04T00:54:35;6.70;;;4.50;;
22219;SDS011;11279;48.364;10.904;2024-02-04T00:55:35;8.53;;;4.97;;
22219;SDS011;11279;48.364;10.904;2024-02-04T00:56:36;9.43;;;5.07;;
22219;SDS011;11279;48.364;10.904;2024-02-04T00:57:38;6.97;;;4.53;;
22219;SDS011;11279;48.364;10.904;2024-02-04T00:58:38;6.77;;;4.47;;
22219;SDS011;11279;48.364;10.904;2024-02-04T00:59:39;6.73;;;4.20;;
22219;SDS011;11279;48.364;10.904;2024-02-04T01:00:39;7.27;;;4.53;;
22219;SDS011;11279;48.364;10.904;2024-02-04T01:01:40;6.13;;;4.17;;
22219;SDS011;11279;48.364;10.904;2024-02-04T01:02:40;8.10;;;4.77;;
22219;SDS011;11279;48.364;10.904;2024-02-04T01:03:41;6.30;;;4.30;;
22219;SDS011;11279;48.364;10.904;2024-02-04T01:04:41;8.70;;;4.40;;
22219;SDS011;11279;48.364;10.904;2024-02-04T01:05:42;7.23;;;4.50;;
22219;SDS011;11279;48.364;10.904;2024-02-04T01:06:42;7.03;;;4.23;;
22219;SDS011;11279;48.364;10.904;2024-02-04T01:07:42;6.87;;;4.43;;
22219;SDS011;11279;48.364;10.904;2024-02-04T01:08:43;6.83;;;4.03;;
22219;SDS011;11279;48.364;10.904;2024-02-04T01:09:43;6.23;;;4.10;;
22219;SDS011;11279;48.364;10.904;2024-02-04T01:10:44;5.87;;;4.17;;
22219;SDS011;11279;48.364;10.904;2024-02-04T01:11:44;6.10;;;3.80;;
22219;SDS011;11279;48.364;10.904;2024-02-04T01:12:45;5.63;;;3.80;;
22219;SDS011;11279;48.364;10.904;2024-02-04T01:13:45;6.30;;;3.93;;
22219;SDS011;11279;48.364;10.904;2024-02-04T01:14:46;5.63;;;4.00;;
22219;SDS011;11279;48.364;10.904;2024-02-04T01:15:46;6.10;;;4.03;;
22219;SDS011;11279;48.364;10.904;2024-02-04T01:16:46;6.60;;;4.23;;
22219;SDS011;11279;48.364;10.904;2024-02-04T01:17:47;7.63;;;4.20;;
22219;SDS011;11279;48.364;10.904;2024-02-04T01:18:47;5.50;;;3.87;;
22219;SDS011;11279;48.364;10.904;2024-02-04T01:19:48;5.47;;;3.63;;
22219;SDS011;11279;48.364;10.904;2024-02-04T01:20:48;6.37;;;4.20;;
22219;SDS011;11279;48.364;10.904;2024-02-04T01:21:48;5.83;;;3.90;;
22219;SDS011;11279;48.364;10.904;2024-02-04T01:22:49;7.20;;;3.90;;
22219;SDS011;11279;48.364;10.904;2024-02-04T01:23:49;5.77;;;4.00;;
22219;SDS011;11279;48.364;10.904;2024-02-04T01:24:50;9.00;;;3.83;;
22219;SDS011;11279;48.364;10.904;2024-02-04T01:25:50;6.40;;;3.50;;
22219;SDS011;11279;48.364;10.904;2024-02-04T01:26:51;5.50;;;3.70;;
22219;SDS011;11279;48.364;10.904;2024-02-04T01:27:51;6.13;;;3.93;;
22219;SDS011;11279;48.364;10.904;2024-02-04T01:28:51;6.67;;;4.00;;
22219;SDS011;11279;48.364;10.904;2024-02-04T01:29:52;6.17;;;4.07;;
22219;SDS011;11279;48.364;10.904;2024-02-04T01:30:53;5.20;;;3.72;;
22219;SDS011;11279;48.364;10.904;2024-02-04T01:31:53;4.90;;;3.50;;
22219;SDS011;11279;48.364;10.904;2024-02-04T01:32:54;6.20;;;3.90;;
22219;SDS011;11279;48.364;10.904;2024-02-04T01:33:54;6.17;;;3.70;;
22219;SDS011;11279;48.364;10.904;2024-02-04T01:34:55;5.20;;;3.70;;
22219;SDS011;11279;48.364;10.904;2024-02-04T01:35:55;4.83;;;3.47;;
22219;SDS011;11279;48.364;10.904;2024-02-04T01:36:56;4.97;;;3.30;;
22219;SDS011;11279;48.364;10.904;2024-02-04T01:37:56;4.33;;;3.23;;
22219;SDS011;11279;48.364;10.904;2024-02-04T01:38:56;6.40;;;3.40;;
22219;SDS011;11279;48.364;10.904;2024-02-04T01:39:57;4.53;;;3.20;;
22219;SDS011;11279;48.364;10.904;2024-02-04T01:40:57;4.70;;;3.27;;
22219;SDS011;11279;48.364;10.904;2024-02-04T01:41:58;5.93;;;3.30;;
22219;SDS011;11279;48.364;10.904;2024-02-04T01:42:58;4.97;;;3.50;;
22219;SDS011;11279;48.364;10.904;2024-02-04T01:43:59;4.30;;;3.13;;
22219;SDS011;11279;48.364;10.904;2024-02-04T01:44:59;4.87;;;3.33;;
22219;SDS011;11279;48.364;10.904;2024-02-04T01:46:00;4.40;;;3.07;;
22219;SDS011;11279;48.364;10.904;2024-02-04T01:47:00;4.93;;;3.23;;
22219;SDS011;11279;48.364;10.904;2024-02-04T01:48:01;4.37;;;3.07;;
22219;SDS011;11279;48.364;10.904;2024-02-04T01:49:01;4.40;;;3.00;;
22219;SDS011;11279;48.364;10.904;2024-02-04T01:50:02;4.83;;;3.13;;
22219;SDS011;11279;48.364;10.904;2024-02-04T01:51:03;4.38;;;3.20;;
22219;SDS011;11279;48.364;10.904;2024-02-04T01:52:04;5.07;;;3.30;;
22219;SDS011;11279;48.364;10.904;2024-02-04T01:53:05;4.40;;;2.88;;
22219;SDS011;11279;48.364;10.904;2024-02-04T01:54:06;3.97;;;2.80;;
22219;SDS011;11279;48.364;10.904;2024-02-04T01:55:07;3.60;;;2.83;;
22219;SDS011;11279;48.364;10.904;2024-02-04T01:56:08;5.23;;;2.73;;
22219;SDS011;11279;48.364;10.904;2024-02-04T01:57:09;4.27;;;2.90;;
22219;SDS011;11279;48.364;10.904;2024-02-04T01:58:11;4.65;;;2.70;;
22219;SDS011;11279;48.364;10.904;2024-02-04T01:59:11;5.27;;;3.00;;
22219;SDS011;11279;48.364;10.904;2024-02-04T02:00:13;4.47;;;2.95;;
22219;SDS011;11279;48.364;10.904;2024-02-04T02:01:14;4.03;;;2.57;;
22219;SDS011;11279;48.364;10.904;2024-02-04T02:02:14;4.63;;;2.57;;
22219;SDS011;11279;48.364;10.904;2024-02-04T02:03:15;4.43;;;2.70;;
22219;SDS011;11279;48.364;10.904;2024-02-04T02:04:16;4.03;;;2.60;;
22219;SDS011;11279;48.364;10.904;2024-02-04T02:05:16;3.27;;;2.40;;
22219;SDS011;11279;48.364;10.904;2024-02-04T02:06:17;3.57;;;2.47;;
22219;SDS011;11279;48.364;10.904;2024-02-04T02:07:17;3.03;;;2.47;;
22219;SDS011;11279;48.364;10.904;2024-02-04T02:08:21;3.63;;;2.40;;
22219;SDS011;11279;48.364;10.904;2024-02-04T02:09:21;3.53;;;2.43;;
22219;SDS011;11279;48.364;10.904;2024-02-04T02:10:22;2.57;;;1.90;;
22219;SDS011;11279;48.364;10.904;2024-02-04T02:11:27;3.15;;;2.30;;
22219;SDS011;11279;48.364;10.904;2024-02-04T02:12:40;3.28;;;2.40;;
22219;SDS011;11279;48.364;10.904;2024-02-04T02:13:44;1.88;;;1.67;;
22219;SDS011;11279;48.364;10.904;2024-02-04T02:14:50;2.22;;;1.73;;
22219;SDS011;11279;48.364;10.904;2024-02-04T02:16:07;3.13;;;2.20;;
22219;SDS011;11279;48.364;10.904;2024-02-04T02:17:14;3.42;;;2.25;;
22219;SDS011;11279;48.364;10.904;2024-02-04T02:18:27;3.72;;;2.20;;
22219;SDS011;11279;48.364;10.904;2024-02-04T02:19:52;3.88;;;2.28;;
22219;SDS011;11279;48.364;10.904;2024-02-04T02:21:09;2.72;;;2.00;;
22219;SDS011;11279;48.364;10.904;2024-02-04T02:24:09;3.05;;;2.00;;
22219;SDS011;11279;48.364;10.904;2024-02-04T02:25:25;3.63;;;2.15;;
22219;SDS011;11279;48.364;10.904;2024-02-04T02:26:25;3.87;;;2.20;;
22219;SDS011;11279;48.364;10.904;2024-02-04T02:27:26;3.03;;;2.03;;
22219;SDS011;11279;48.364;10.904;2024-02-04T02:28:26;2.10;;;1.90;;
22219;SDS011;11279;48.364;10.904;2024-02-04T02:29:27;4.47;;;2.23;;
22219;SDS011;11279;48.364;10.904;2024-02-04T02:30:27;3.20;;;2.40;;
22219;SDS011;11279;48.364;10.904;2024-02-04T02:31:28;2.90;;;2.10;;
22219;SDS011;11279;48.364;10.904;2024-02-04T02:32:28;2.93;;;2.20;;
22219;SDS011;11279;48.364;10.904;2024-02-04T02:33:28;4.20;;;2.00;;
22219;SDS011;11279;48.364;10.904;2024-02-04T02:34:29;2.80;;;2.10;;
22219;SDS011;11279;48.364;10.904;2024-02-04T02:35:30;3.15;;;2.20;;
22219;SDS011;11279;48.364;10.904;2024-02-04T02:36:33;3.33;;;2.30;;
22219;SDS011;11279;48.364;10.904;2024-02-04T02:37:37;3.28;;;2.30;;
22219;SDS011;11279;48.364;10.904;2024-02-04T02:38:46;3.78;;;2.67;;
22219;SDS011;11279;48.364;10.904;2024-02-04T02:41:23;3.67;;;2.60;;
22219;SDS011;11279;48.364;10.904;2024-02-04T02:42:24;4.17;;;2.73;;
22219;SDS011;11279;48.364;10.904;2024-02-04T02:43:25;3.85;;;2.90;;
22219;SDS011;11279;48.364;10.904;2024-02-04T02:44:26;4.05;;;2.50;;
22219;SDS011;11279;48.364;10.904;2024-02-04T02:45:27;5.23;;;2.40;;
22219;SDS011;11279;48.364;10.904;2024-02-04T02:46:28;3.30;;;2.70;;
22219;SDS011;11279;48.364;10.904;2024-02-04T02:47:28;5.13;;;2.80;;
22219;SDS011;11279;48.364;10.904;2024-02-04T02:48:29;3.40;;;2.60;;
22219;SDS011;11279;48.364;10.904;2024-02-04T02:49:29;4.23;;;2.90;;
22219;SDS011;11279;48.364;10.904;2024-02-04T02:50:30;3.10;;;2.50;;
22219;SDS011;11279;48.364;10.904;2024-02-04T02:51:30;3.70;;;2.90;;
22219;SDS011;11279;48.364;10.904;2024-02-04T02:52:31;5.00;;;3.40;;
22219;SDS011;11279;48.364;10.904;2024-02-04T02:53:31;4.73;;;3.00;;
22219;SDS011;11279;48.364;10.904;2024-02-04T02:54:31;3.43;;;2.50;;
22219;SDS011;11279;48.364;10.904;2024-02-04T02:55:32;4.57;;;2.67;;
22219;SDS011;11279;48.364;10.904;2024-02-04T02:56:32;4.80;;;3.10;;
22219;SDS011;11279;48.364;10.904;2024-02-04T02:57:33;3.93;;;2.73;;
22219;SDS011;11279;48.364;10.904;2024-02-04T02:58:33;4.90;;;3.27;;
22219;SDS011;11279;48.364;10.904;2024-02-04T02:59:34;4.10;;;3.07;;
22219;SDS011;11279;48.364;10.904;2024-02-04T03:00:34;4.30;;;2.87;;
22219;SDS011;11279;48.364;10.904;2024-02-04T03:01:38;4.10;;;2.83;;
22219;SDS011;11279;48.364;10.904;2024-02-04T03:02:39;6.70;;;3.00;;
22219;SDS011;11279;48.364;10.904;2024-02-04T03:03:39;4.30;;;2.83;;
22219;SDS011;11279;48.364;10.904;2024-02-04T03:04:40;4.33;;;2.70;;
22219;SDS011;11279;48.364;10.904;2024-02-04T03:05:40;4.70;;;3.20;;
22219;SDS011;11279;48.364;10.904;2024-02-04T03:06:41;6.50;;;3.10;;
22219;SDS011;11279;48.364;10.904;2024-02-04T03:07:41;3.70;;;2.70;;
22219;SDS011;11279;48.364;10.904;2024-02-04T03:08:42;4.53;;;3.07;;
22219;SDS011;11279;48.364;10.904;2024-02-04T03:09:42;4.57;;;3.03;;
22219;SDS011;11279;48.364;10.904;2024-02-04T03:10:44;5.93;;;3.13;;
22219;SDS011;11279;48.364;10.904;2024-02-04T03:11:44;4.43;;;3.27;;
22219;SDS011;11279;48.364;10.904;2024-02-04T03:12:46;4.28;;;3.10;;
22219;SDS011;11279;48.364;10.904;2024-02-04T03:13:46;5.40;;;3.33;;
22219;SDS011;11279;48.364;10.904;2024-02-04T03:14:46;4.90;;;3.50;;
22219;SDS011;11279;48.364;10.904;2024-02-04T03:15:47;5.17;;;3.20;;
22219;SDS011;11279;48.364;10.904;2024-02-04T03:16:47;5.10;;;3.40;;
22219;SDS011;11279;48.364;10.904;2024-02-04T03:17:48;4.63;;;3.00;;
22219;SDS011;11279;48.364;10.904;2024-02-04T03:18:48;4.53;;;3.00;;
22219;SDS011;11279;48.364;10.904;2024-02-04T03:19:49;6.27;;;3.40;;
22219;SDS011;11279;48.364;10.904;2024-02-04T03:20:51;4.95;;;3.22;;
22219;SDS011;11279;48.364;10.904;2024-02-04T03:21:52;4.87;;;3.40;;
22219;SDS011;11279;48.364;10.904;2024-02-04T03:22:52;5.03;;;3.40;;
22219;SDS011;11279;48.364;10.904;2024-02-04T03:23:53;4.27;;;3.10;;
22219;SDS011;11279;48.364;10.904;2024-02-04T03:24:53;5.03;;;3.47;;
22219;SDS011;11279;48.364;10.904;2024-02-04T03:25:54;5.33;;;3.40;;
22219;SDS011;11279;48.364;10.904;2024-02-04T03:26:55;4.93;;;3.28;;
22219;SDS011;11279;48.364;10.904;2024-02-04T03:27:55;4.10;;;3.07;;
22219;SDS011;11279;48.364;10.904;2024-02-04T03:28:55;5.90;;;3.60;;
22219;SDS011;11279;48.364;10.904;2024-02-04T03:29:56;5.43;;;3.43;;
22219;SDS011;11279;48.364;10.904;2024-02-04T03:30:56;4.87;;;3.03;;
22219;SDS011;11279;48.364;10.904;2024-02-04T03:31:57;5.53;;;3.60;;
22219;SDS011;11279;48.364;10.904;2024-02-04T03:32:57;4.67;;;3.40;;
22219;SDS011;11279;48.364;10.904;2024-02-04T03:33:57;6.73;;;3.53;;
22219;SDS011;11279;48.364;10.904;2024-02-04T03:34:58;6.50;;;3.83;;
22219;SDS011;11279;48.364;10.904;2024-02-04T03:35:58;5.57;;;3.67;;
22219;SDS011;11279;48.364;10.904;2024-02-04T03:36:59;4.90;;;3.37;;
22219;SDS011;11279;48.364;10.904;2024-02-04T03:37:59;5.87;;;3.53;;
22219;SDS011;11279;48.364;10.904;2024-02-04T03:39:00;5.57;;;3.70;;
22219;SDS011;11279;48.364;10.904;2024-02-04T03:40:00;5.93;;;3.70;;
22219;SDS011;11279;48.364;10.904;2024-02-04T03:41:00;7.10;;;3.47;;
22219;SDS011;11279;48.364;10.904;2024-02-04T03:42:01;5.90;;;3.50;;
22219;SDS011;11279;48.364;10.904;2024-02-04T03:43:01;4.93;;;3.27;;
22219;SDS011;11279;48.364;10.904;2024-02-04T03:44:02;5.20;;;3.40;;
22219;SDS011;11279;48.364;10.904;2024-02-04T03:45:02;4.87;;;3.30;;
22219;SDS011;11279;48.364;10.904;2024-02-04T03:46:03;5.32;;;3.28;;
22219;SDS011;11279;48.364;10.904;2024-02-04T03:47:04;4.67;;;3.40;;
22219;SDS011;11279;48.364;10.904;2024-02-04T03:48:04;4.83;;;3.23;;
22219;SDS011;11279;48.364;10.904;2024-02-04T03:49:06;4.53;;;3.27;;
22219;SDS011;11279;48.364;10.904;2024-02-04T03:50:07;5.13;;;3.10;;
22219;SDS011;11279;48.364;10.904;2024-02-04T03:51:08;5.30;;;2.50;;
22219;SDS011;11279;48.364;10.904;2024-02-04T03:52:15;5.78;;;3.13;;
22219;SDS011;11279;48.364;10.904;2024-02-04T03:53:16;4.97;;;2.93;;
22219;SDS011;11279;48.364;10.904;2024-02-04T03:54:16;3.87;;;2.63;;
22219;SDS011;11279;48.364;10.904;2024-02-04T03:55:19;4.05;;;2.53;;
22219;SDS011;11279;48.364;10.904;2024-02-04T03:56:19;4.43;;;2.83;;
22219;SDS011;11279;48.364;10.904;2024-02-04T03:57:19;3.73;;;2.70;;
22219;SDS011;11279;48.364;10.904;2024-02-04T03:58:20;3.63;;;2.80;;
22219;SDS011;11279;48.364;10.904;2024-02-04T03:59:29;4.90;;;2.70;;
22219;SDS011;11279;48.364;10.904;2024-02-04T04:00:29;3.83;;;2.67;;
22219;SDS011;11279;48.364;10.904;2024-02-04T04:01:29;3.60;;;2.60;;
22219;SDS011;11279;48.364;10.904;2024-02-04T04:02:30;3.73;;;2.60;;
22219;SDS011;11279;48.364;10.904;2024-02-04T04:03:30;3.70;;;2.63;;
22219;SDS011;11279;48.364;10.904;2024-02-04T04:04:31;3.80;;;2.67;;
22219;SDS011;11279;48.364;10.904;2024-02-04T04:05:31;3.70;;;2.63;;
22219;SDS011;11279;48.364;10.904;2024-02-04T04:06:32;3.60;;;2.33;;
22219;SDS011;11279;48.364;10.904;2024-02-04T04:07:32;3.70;;;2.17;;
22219;SDS011;11279;48.364;10.904;2024-02-04T04:08:33;3.80;;;2.43;;
22219;SDS011;11279;48.364;10.904;2024-02-04T04:09:33;4.20;;;2.40;;
22219;SDS011;11279;48.364;10.904;2024-02-04T04:10:33;4.43;;;2.70;;
22219;SDS011;11279;48.364;10.904;2024-02-04T04:11:34;3.57;;;2.40;;
22219;SDS011;11279;48.364;10.904;2024-02-04T04:12:34;4.10;;;2.70;;
22219;SDS011;11279;48.364;10.904;2024-02-04T04:13:35;3.90;;;2.87;;
22219;SDS011;11279;48.364;10.904;2024-02-04T04:14:35;4.10;;;2.73;;
22219;SDS011;11279;48.364;10.904;2024-02-04T04:15:36;3.17;;;2.37;;
22219;SDS011;11279;48.364;10.904;2024-02-04T04:16:37;3.97;;;2.50;;
22219;SDS011;11279;48.364;10.904;2024-02-04T04:17:37;2.80;;;2.20;;
22219;SDS011;11279;48.364;10.904;2024-02-04T04:18:38;3.87;;;2.60;;
22219;SDS011;11279;48.364;10.904;2024-02-04T04:19:38;3.50;;;2.60;;
22219;SDS011;11279;48.364;10.904;2024-02-04T04:20:39;4.37;;;2.80;;
22219;SDS011;11279;48.364;10.904;2024-02-04T04:21:40;3.75;;;2.45;;
22219;SDS011;11279;48.364;10.904;2024-02-04T04:22:40;3.00;;;2.37;;
22219;SDS011;11279;48.364;10.904;2024-02-04T04:23:41;3.83;;;2.40;;
22219;SDS011;11279;48.364;10.904;2024-02-04T04:24:41;2.87;;;2.33;;
22219;SDS011;11279;48.364;10.904;2024-02-04T04:25:42;4.27;;;2.70;;
22219;SDS011;11279;48.364;10.904;2024-02-04T04:26:42;4.10;;;2.27;;
22219;SDS011;11279;48.364;10.904;2024-02-04T04:27:43;4.53;;;2.80;;
22219;SDS011;11279;48.364;10.904;2024-02-04T04:28:44;3.27;;;2.60;;
22219;SDS011;11279;48.364;10.904;2024-02-04T04:29:44;3.67;;;2.50;;
22219;SDS011;11279;48.364;10.904;2024-02-04T04:30:44;2.93;;;2.27;;
22219;SDS011;11279;48.364;10.904;2024-02-04T04:31:45;4.27;;;2.80;;
22219;SDS011;11279;48.364;10.904;2024-02-04T04:32:45;2.90;;;2.20;;
22219;SDS011;11279;48.364;10.904;2024-02-04T04:33:46;3.83;;;2.47;;
22219;SDS011;11279;48.364;10.904;2024-02-04T04:34:46;4.30;;;2.67;;
22219;SDS011;11279;48.364;10.904;2024-02-04T04:35:46;4.50;;;2.87;;
22219;SDS011;11279;48.364;10.904;2024-02-04T04:36:47;4.47;;;2.70;;
22219;SDS011;11279;48.364;10.904;2024-02-04T04:37:48;4.17;;;2.83;;
22219;SDS011;11279;48.364;10.904;2024-02-04T04:38:48;3.90;;;2.67;;
22219;SDS011;11279;48.364;10.904;2024-02-04T04:39:50;3.80;;;2.80;;
22219;SDS011;11279;48.364;10.904;2024-02-04T04:40:51;3.40;;;2.80;;
22219;SDS011;11279;48.364;10.904;2024-02-04T04:41:51;6.00;;;3.17;;
22219;SDS011;11279;48.364;10.904;2024-02-04T04:42:51;4.37;;;3.00;;
22219;SDS011;11279;48.364;10.904;2024-02-04T04:43:52;5.43;;;3.37;;
22219;SDS011;11279;48.364;10.904;2024-02-04T04:44:52;4.83;;;3.03;;
22219;SDS011;11279;48.364;10.904;2024-02-04T04:45:53;7.13;;;3.00;;
22219;SDS011;11279;48.364;10.904;2024-02-04T04:46:53;6.33;;;3.33;;
22219;SDS011;11279;48.364;10.904;2024-02-04T04:47:53;4.43;;;3.07;;
22219;SDS011;11279;48.364;10.904;2024-02-04T04:48:54;6.73;;;3.60;;
22219;SDS011;11279;48.364;10.904;2024-02-04T04:49:58;4.13;;;2.70;;
22219;SDS011;11279;48.364;10.904;2024-02-04T04:50:58;4.83;;;3.10;;
22219;SDS011;11279;48.364;10.904;2024-02-04T04:51:59;5.03;;;3.40;;
22219;SDS011;11279;48.364;10.904;2024-02-04T04:52:59;4.17;;;3.07;;
22219;SDS011;11279;48.364;10.904;2024-02-04T04:53:59;6.00;;;3.50;;
22219;SDS011;11279;48.364;10.904;2024-02-04T04:55:00;5.10;;;3.30;;
22219;SDS011;11279;48.364;10.904;2024-02-04T04:56:00;5.97;;;3.80;;
22219;SDS011;11279;48.364;10.904;2024-02-04T04:57:01;6.00;;;3.57;;
22219;SDS011;11279;48.364;10.904;2024-02-04T04:58:01;5.27;;;3.33;;
22219;SDS011;11279;48.364;10.904;2024-02-04T04:59:02;6.40;;;3.97;;
22219;SDS011;11279;48.364;10.904;2024-02-04T05:00:02;5.87;;;3.60;;
22219;SDS011;11279;48.364;10.904;2024-02-04T05:01:06;5.90;;;3.55;;
22219;SDS011;11279;48.364;10.904;2024-02-04T05:02:07;5.50;;;3.70;;
22219;SDS011;11279;48.364;10.904;2024-02-04T05:03:07;5.37;;;3.37;;
22219;SDS011;11279;48.364;10.904;2024-02-04T05:04:08;5.57;;;3.70;;
22219;SDS011;11279;48.364;10.904;2024-02-04T05:05:10;8.57;;;4.33;;
22219;SDS011;11279;48.364;10.904;2024-02-04T05:06:10;6.40;;;4.00;;
22219;SDS011;11279;48.364;10.904;2024-02-04T05:07:11;6.10;;;3.70;;
22219;SDS011;11279;48.364;10.904;2024-02-04T05:08:13;7.20;;;4.27;;
22219;SDS011;11279;48.364;10.904;2024-02-04T05:09:14;5.82;;;3.83;;
22219;SDS011;11279;48.364;10.904;2024-02-04T05:10:14;5.53;;;3.70;;
22219;SDS011;11279;48.364;10.904;2024-02-04T05:11:15;5.90;;;4.03;;
22219;SDS011;11279;48.364;10.904;2024-02-04T05:12:15;5.37;;;3.67;;
22219;SDS011;11279;48.364;10.904;2024-02-04T05:13:15;5.23;;;3.57;;
22219;SDS011;11279;48.364;10.904;2024-02-04T05:14:16;7.40;;;4.30;;
22219;SDS011;11279;48.364;10.904;2024-02-04T05:15:16;8.63;;;4.00;;
22219;SDS011;11279;48.364;10.904;2024-02-04T05:16:17;8.00;;;3.90;;
22219;SDS011;11279;48.364;10.904;2024-02-04T05:17:17;11.13;;;4.13;;
22219;SDS011;11279;48.364;10.904;2024-02-04T05:18:18;8.60;;;4.40;;
22219;SDS011;11279;48.364;10.904;2024-02-04T05:19:18;6.17;;;3.97;;
22219;SDS011;11279;48.364;10.904;2024-02-04T05:20:19;7.50;;;4.70;;
22219;SDS011;11279;48.364;10.904;2024-02-04T05:21:19;7.43;;;3.70;;
22219;SDS011;11279;48.364;10.904;2024-02-04T05:22:19;6.93;;;4.20;;
22219;SDS011;11279;48.364;10.904;2024-02-04T05:23:20;7.37;;;4.23;;
22219;SDS011;11279;48.364;10.904;2024-02-04T05:24:20;6.23;;;4.23;;
22219;SDS011;11279;48.364;10.904;2024-02-04T05:25:21;6.97;;;4.27;;
22219;SDS011;11279;48.364;10.904;2024-02-04T05:26:21;8.00;;;4.27;;
22219;SDS011;11279;48.364;10.904;2024-02-04T05:27:22;7.53;;;4.60;;
22219;SDS011;11279;48.364;10.904;2024-02-04T05:28:22;6.13;;;4.10;;
22219;SDS011;11279;48.364;10.904;2024-02-04T05:29:22;7.47;;;4.10;;
22219;SDS011;11279;48.364;10.904;2024-02-04T05:30:23;8.60;;;4.40;;
22219;SDS011;11279;48.364;10.904;2024-02-04T05:31:23;9.33;;;4.67;;
22219;SDS011;11279;48.364;10.904;2024-02-04T05:32:24;7.83;;;4.60;;
22219;SDS011;11279;48.364;10.904;2024-02-04T05:33:24;5.93;;;4.20;;
22219;SDS011;11279;48.364;10.904;2024-02-04T05:34:25;7.37;;;4.83;;
22219;SDS011;11279;48.364;10.904;2024-02-04T05:35:25;6.37;;;4.30;;
22219;SDS011;11279;48.364;10.904;2024-02-04T05:36:25;7.33;;;4.20;;
22219;SDS011;11279;48.364;10.904;2024-02-04T05:37:26;7.93;;;4.50;;
22219;SDS011;11279;48.364;10.904;2024-02-04T05:38:26;8.20;;;4.10;;
22219;SDS011;11279;48.364;10.904;2024-02-04T05:39:27;10.10;;;4.70;;
22219;SDS011;11279;48.364;10.904;2024-02-04T05:40:27;6.67;;;4.30;;
22219;SDS011;11279;48.364;10.904;2024-02-04T05:41:28;6.97;;;4.17;;
22219;SDS011;11279;48.364;10.904;2024-02-04T05:42:28;8.00;;;4.50;;
22219;SDS011;11279;48.364;10.904;2024-02-04T05:43:29;8.02;;;4.57;;
22219;SDS011;11279;48.364;10.904;2024-02-04T05:44:29;7.20;;;4.20;;
22219;SDS011;11279;48.364;10.904;2024-02-04T05:45:30;6.37;;;4.00;;
22219;SDS011;11279;48.364;10.904;2024-02-04T05:46:30;6.33;;;4.07;;
22219;SDS011;11279;48.364;10.904;2024-02-04T05:47:31;6.73;;;4.30;;
22219;SDS011;11279;48.364;10.904;2024-02-04T05:48:31;7.97;;;4.43;;
22219;SDS011;11279;48.364;10.904;2024-02-04T05:49:32;7.13;;;4.50;;
22219;SDS011;11279;48.364;10.904;2024-02-04T05:50:32;10.60;;;4.67;;
22219;SDS011;11279;48.364;10.904;2024-02-04T05:51:36;7.17;;;4.50;;
22219;SDS011;11279;48.364;10.904;2024-02-04T05:52:38;8.55;;;4.88;;
22219;SDS011;11279;48.364;10.904;2024-02-04T05:53:38;8.43;;;4.87;;
22219;SDS011;11279;48.364;10.904;2024-02-04T05:54:39;7.57;;;4.20;;
22219;SDS011;11279;48.364;10.904;2024-02-04T05:55:40;7.10;;;4.50;;
22219;SDS011;11279;48.364;10.904;2024-02-04T05:56:40;6.60;;;4.13;;
22219;SDS011;11279;48.364;10.904;2024-02-04T05:57:40;6.63;;;4.43;;
22219;SDS011;11279;48.364;10.904;2024-02-04T05:58:41;8.20;;;4.70;;
22219;SDS011;11279;48.364;10.904;2024-02-04T05:59:41;9.30;;;4.97;;
22219;SDS011;11279;48.364;10.904;2024-02-04T06:00:42;8.30;;;4.87;;
22219;SDS011;11279;48.364;10.904;2024-02-04T06:01:42;7.47;;;4.57;;
22219;SDS011;11279;48.364;10.904;2024-02-04T06:02:43;7.57;;;4.63;;
22219;SDS011;11279;48.364;10.904;2024-02-04T06:03:44;6.87;;;4.63;;
22219;SDS011;11279;48.364;10.904;2024-02-04T06:04:44;7.40;;;4.73;;